sensor_id;sensor_type;location;lat;lon;timestamp;P1;durP1;ratioP1;P2;durP2;ratioP2
38053;SDS011;23859;50.672;7.164;2023-10-13T00:01:24;24.08;;;12.20;;
38053;SDS011;23859;50.672;7.164;2023-10-13T00:03:50;20.58;;;11.57;;
38053;SDS011;23859;50.672;7.164;2023-10-13T00:06:17;18.77;;;10.93;;
38053;SDS011;23859;50.672;7.164;2023-10-13T00:08:44;19.25;;;11.38;;
38053;SDS011;23859;50.672;7.164;2023-10-13T00:11:11;20.70;;;11.05;;
38053;SDS011;23859;50.672;7.164;2023-10-13T00:13:41;21.13;;;11.60;;
38053;SDS011;23859;50.672;7.164;2023-10-13T00:16:08;24.88;;;11.38;;
38053;SDS011;23859;50.672;7.164;2023-10-13T00:18:42;23.52;;;12.00;;
38053;SDS011;23859;50.672;7.164;2023-10-13T00:21:09;24.08;;;12.23;;
38053;SDS011;23859;50.672;7.164;2023-10-13T00:23:42;20.55;;;12.13;;
38053;SDS011;23859;50.672;7.164;2023-10-13T00:26:21;22.10;;;11.43;;
38053;SDS011;23859;50.672;7.164;2023-10-13T00:28:51;20.25;;;11.45;;
38053;SDS011;23859;50.672;7.164;2023-10-13T00:31:40;21.15;;;11.57;;
38053;SDS011;23859;50.672;7.164;2023-10-13T00:34:11;36.38;;;12.43;;
38053;SDS011;23859;50.672;7.164;2023-10-13T00:36:53;25.15;;;12.55;;
38053;SDS011;23859;50.672;7.164;2023-10-13T00:39:44;21.30;;;10.48;;
38053;SDS011;23859;50.672;7.164;2023-10-13T00:42:11;18.23;;;10.63;;
38053;SDS011;23859;50.672;7.164;2023-10-13T00:45:07;20.65;;;10.55;;
38053;SDS011;23859;50.672;7.164;2023-10-13T00:47:34;22.77;;;11.88;;
38053;SDS011;23859;50.672;7.164;2023-10-13T00:50:00;21.70;;;11.20;;
38053;SDS011;23859;50.672;7.164;2023-10-13T00:52:26;18.95;;;10.32;;
38053;SDS011;23859;50.672;7.164;2023-10-13T00:54:54;27.38;;;10.38;;
38053;SDS011;23859;50.672;7.164;2023-10-13T00:57:24;19.13;;;10.88;;
38053;SDS011;23859;50.672;7.164;2023-10-13T00:59:51;19.95;;;11.23;;
38053;SDS011;23859;50.672;7.164;2023-10-13T01:02:21;21.77;;;11.57;;
38053;SDS011;23859;50.672;7.164;2023-10-13T01:05:05;21.90;;;10.57;;
38053;SDS011;23859;50.672;7.164;2023-10-13T01:07:34;20.02;;;11.60;;
38053;SDS011;23859;50.672;7.164;2023-10-13T01:10:02;17.67;;;11.07;;
38053;SDS011;23859;50.672;7.164;2023-10-13T01:12:29;21.08;;;10.65;;
38053;SDS011;23859;50.672;7.164;2023-10-13T01:14:56;20.73;;;10.30;;
38053;SDS011;23859;50.672;7.164;2023-10-13T01:17:24;20.75;;;11.20;;
38053;SDS011;23859;50.672;7.164;2023-10-13T01:19:54;19.98;;;11.50;;
38053;SDS011;23859;50.672;7.164;2023-10-13T01:22:23;15.60;;;9.55;;
38053;SDS011;23859;50.672;7.164;2023-10-13T01:24:49;27.17;;;12.05;;
38053;SDS011;23859;50.672;7.164;2023-10-13T01:27:16;16.02;;;9.82;;
38053;SDS011;23859;50.672;7.164;2023-10-13T01:29:46;27.92;;;11.52;;
38053;SDS011;23859;50.672;7.164;2023-10-13T01:32:21;25.00;;;11.45;;
38053;SDS011;23859;50.672;7.164;2023-10-13T01:34:48;25.42;;;10.85;;
38053;SDS011;23859;50.672;7.164;2023-10-13T01:37:15;24.98;;;11.05;;
38053;SDS011;23859;50.672;7.164;2023-10-13T01:39:41;16.83;;;10.85;;
38053;SDS011;23859;50.672;7.164;2023-10-13T01:42:12;24.52;;;12.30;;
38053;SDS011;23859;50.672;7.164;2023-10-13T01:44:44;26.20;;;11.43;;
38053;SDS011;23859;50.672;7.164;2023-10-13T01:47:10;21.98;;;11.38;;
38053;SDS011;23859;50.672;7.164;2023-10-13T01:49:37;21.92;;;10.85;;
38053;SDS011;23859;50.672;7.164;2023-10-13T01:52:07;23.50;;;11.48;;
38053;SDS011;23859;50.672;7.164;2023-10-13T01:54:36;18.85;;;11.70;;
38053;SDS011;23859;50.672;7.164;2023-10-13T01:57:08;25.02;;;11.73;;
38053;SDS011;23859;50.672;7.164;2023-10-13T01:59:44;22.58;;;11.70;;
38053;SDS011;23859;50.672;7.164;2023-10-13T02:02:13;30.42;;;12.55;;
38053;SDS011;23859;50.672;7.164;2023-10-13T02:04:44;29.42;;;11.88;;
38053;SDS011;23859;50.672;7.164;2023-10-13T02:07:28;22.17;;;11.23;;
38053;SDS011;23859;50.672;7.164;2023-10-13T02:09:55;27.63;;;11.55;;
38053;SDS011;23859;50.672;7.164;2023-10-13T02:12:21;19.52;;;11.30;;
38053;SDS011;23859;50.672;7.164;2023-10-13T02:14:54;21.90;;;12.90;;
38053;SDS011;23859;50.672;7.164;2023-10-13T02:17:20;18.00;;;11.63;;
38053;SDS011;23859;50.672;7.164;2023-10-13T02:19:46;21.45;;;11.23;;
38053;SDS011;23859;50.672;7.164;2023-10-13T02:22:12;24.83;;;11.85;;
38053;SDS011;23859;50.672;7.164;2023-10-13T02:24:56;19.33;;;10.75;;
38053;SDS011;23859;50.672;7.164;2023-10-13T02:27:26;19.98;;;10.93;;
38053;SDS011;23859;50.672;7.164;2023-10-13T02:29:53;23.30;;;10.95;;
38053;SDS011;23859;50.672;7.164;2023-10-13T02:32:23;15.50;;;9.70;;
38053;SDS011;23859;50.672;7.164;2023-10-13T02:34:51;20.60;;;10.80;;
38053;SDS011;23859;50.672;7.164;2023-10-13T02:37:17;21.85;;;10.10;;
38053;SDS011;23859;50.672;7.164;2023-10-13T02:39:45;18.63;;;10.57;;
38053;SDS011;23859;50.672;7.164;2023-10-13T02:42:11;22.35;;;11.43;;
38053;SDS011;23859;50.672;7.164;2023-10-13T02:44:59;22.70;;;10.60;;
38053;SDS011;23859;50.672;7.164;2023-10-13T02:47:36;22.23;;;11.13;;
38053;SDS011;23859;50.672;7.164;2023-10-13T02:50:02;26.52;;;11.20;;
38053;SDS011;23859;50.672;7.164;2023-10-13T02:52:36;20.60;;;10.32;;
38053;SDS011;23859;50.672;7.164;2023-10-13T02:55:06;20.58;;;11.45;;
38053;SDS011;23859;50.672;7.164;2023-10-13T02:57:39;20.23;;;11.60;;
38053;SDS011;23859;50.672;7.164;2023-10-13T03:00:06;23.15;;;10.93;;
38053;SDS011;23859;50.672;7.164;2023-10-13T03:02:40;17.77;;;9.93;;
38053;SDS011;23859;50.672;7.164;2023-10-13T03:05:20;20.25;;;10.35;;
38053;SDS011;23859;50.672;7.164;2023-10-13T03:07:47;20.83;;;10.13;;
38053;SDS011;23859;50.672;7.164;2023-10-13T03:10:15;20.08;;;10.30;;
38053;SDS011;23859;50.672;7.164;2023-10-13T03:12:44;26.42;;;11.38;;
38053;SDS011;23859;50.672;7.164;2023-10-13T03:15:13;25.10;;;10.63;;
38053;SDS011;23859;50.672;7.164;2023-10-13T03:17:43;18.58;;;10.15;;
38053;SDS011;23859;50.672;7.164;2023-10-13T03:20:18;18.95;;;9.77;;
38053;SDS011;23859;50.672;7.164;2023-10-13T03:22:47;19.95;;;10.48;;
38053;SDS011;23859;50.672;7.164;2023-10-13T03:25:17;17.77;;;9.60;;
38053;SDS011;23859;50.672;7.164;2023-10-13T03:27:54;23.63;;;12.07;;
38053;SDS011;23859;50.672;7.164;2023-10-13T03:30:21;18.38;;;10.38;;
38053;SDS011;23859;50.672;7.164;2023-10-13T03:35:21;16.73;;;10.35;;
38053;SDS011;23859;50.672;7.164;2023-10-13T03:37:55;21.63;;;11.30;;
38053;SDS011;23859;50.672;7.164;2023-10-13T03:40:22;19.90;;;11.18;;
38053;SDS011;23859;50.672;7.164;2023-10-13T03:42:48;21.60;;;11.50;;
38053;SDS011;23859;50.672;7.164;2023-10-13T03:45:34;17.38;;;10.30;;
38053;SDS011;23859;50.672;7.164;2023-10-13T03:48:07;19.45;;;11.38;;
38053;SDS011;23859;50.672;7.164;2023-10-13T03:50:36;24.70;;;10.68;;
38053;SDS011;23859;50.672;7.164;2023-10-13T03:53:11;28.50;;;11.27;;
38053;SDS011;23859;50.672;7.164;2023-10-13T03:55:38;20.38;;;10.98;;
38053;SDS011;23859;50.672;7.164;2023-10-13T03:58:05;23.38;;;11.23;;
38053;SDS011;23859;50.672;7.164;2023-10-13T04:00:32;20.27;;;11.65;;
38053;SDS011;23859;50.672;7.164;2023-10-13T04:02:58;18.70;;;10.98;;
38053;SDS011;23859;50.672;7.164;2023-10-13T04:05:27;25.40;;;11.07;;
38053;SDS011;23859;50.672;7.164;2023-10-13T04:08:05;27.40;;;13.85;;
38053;SDS011;23859;50.672;7.164;2023-10-13T04:10:51;28.13;;;11.77;;
38053;SDS011;23859;50.672;7.164;2023-10-13T04:13:18;24.02;;;12.00;;
38053;SDS011;23859;50.672;7.164;2023-10-13T04:16:04;23.52;;;11.60;;
38053;SDS011;23859;50.672;7.164;2023-10-13T04:18:47;25.07;;;12.10;;
38053;SDS011;23859;50.672;7.164;2023-10-13T04:21:19;21.45;;;11.13;;
38053;SDS011;23859;50.672;7.164;2023-10-13T04:24:07;18.85;;;11.00;;
38053;SDS011;23859;50.672;7.164;2023-10-13T04:26:47;22.02;;;11.55;;
38053;SDS011;23859;50.672;7.164;2023-10-13T04:29:33;22.55;;;10.50;;
38053;SDS011;23859;50.672;7.164;2023-10-13T04:32:11;22.20;;;11.65;;
38053;SDS011;23859;50.672;7.164;2023-10-13T04:34:43;22.58;;;11.20;;
38053;SDS011;23859;50.672;7.164;2023-10-13T04:37:16;22.73;;;10.98;;
38053;SDS011;23859;50.672;7.164;2023-10-13T04:40:08;20.33;;;10.13;;
38053;SDS011;23859;50.672;7.164;2023-10-13T04:42:35;18.30;;;10.15;;
38053;SDS011;23859;50.672;7.164;2023-10-13T04:45:21;19.50;;;10.13;;
38053;SDS011;23859;50.672;7.164;2023-10-13T04:48:08;24.50;;;10.25;;
38053;SDS011;23859;50.672;7.164;2023-10-13T04:50:47;24.77;;;10.15;;
38053;SDS011;23859;50.672;7.164;2023-10-13T04:53:23;23.13;;;10.25;;
38053;SDS011;23859;50.672;7.164;2023-10-13T04:55:59;17.02;;;9.63;;
38053;SDS011;23859;50.672;7.164;2023-10-13T04:58:29;22.27;;;9.70;;
38053;SDS011;23859;50.672;7.164;2023-10-13T05:01:01;18.63;;;9.98;;
38053;SDS011;23859;50.672;7.164;2023-10-13T05:03:46;18.00;;;9.15;;
38053;SDS011;23859;50.672;7.164;2023-10-13T05:06:32;21.48;;;9.60;;
38053;SDS011;23859;50.672;7.164;2023-10-13T05:09:07;25.98;;;9.05;;
38053;SDS011;23859;50.672;7.164;2023-10-13T05:11:52;15.63;;;8.90;;
38053;SDS011;23859;50.672;7.164;2023-10-13T05:14:36;16.98;;;8.85;;
38053;SDS011;23859;50.672;7.164;2023-10-13T05:17:21;19.13;;;9.13;;
38053;SDS011;23859;50.672;7.164;2023-10-13T05:20:06;19.92;;;9.07;;
38053;SDS011;23859;50.672;7.164;2023-10-13T05:22:52;18.73;;;9.65;;
38053;SDS011;23859;50.672;7.164;2023-10-13T05:25:37;17.50;;;8.98;;
38053;SDS011;23859;50.672;7.164;2023-10-13T05:28:22;26.95;;;9.10;;
38053;SDS011;23859;50.672;7.164;2023-10-13T05:31:07;20.80;;;8.82;;
38053;SDS011;23859;50.672;7.164;2023-10-13T05:33:51;19.50;;;8.20;;
38053;SDS011;23859;50.672;7.164;2023-10-13T05:36:37;20.38;;;8.77;;
38053;SDS011;23859;50.672;7.164;2023-10-13T05:39:22;17.75;;;8.10;;
38053;SDS011;23859;50.672;7.164;2023-10-13T05:42:07;14.10;;;8.52;;
38053;SDS011;23859;50.672;7.164;2023-10-13T05:44:51;18.35;;;8.15;;
38053;SDS011;23859;50.672;7.164;2023-10-13T05:47:36;18.23;;;9.07;;
38053;SDS011;23859;50.672;7.164;2023-10-13T05:50:11;13.60;;;8.23;;
38053;SDS011;23859;50.672;7.164;2023-10-13T05:52:45;21.33;;;9.18;;
38053;SDS011;23859;50.672;7.164;2023-10-13T05:55:21;13.35;;;8.18;;
38053;SDS011;23859;50.672;7.164;2023-10-13T05:58:10;14.52;;;8.20;;
38053;SDS011;23859;50.672;7.164;2023-10-13T06:00:55;13.73;;;6.97;;
38053;SDS011;23859;50.672;7.164;2023-10-13T06:03:39;17.48;;;7.55;;
38053;SDS011;23859;50.672;7.164;2023-10-13T06:06:24;15.15;;;6.43;;
38053;SDS011;23859;50.672;7.164;2023-10-13T06:09:09;15.75;;;7.53;;
38053;SDS011;23859;50.672;7.164;2023-10-13T06:11:54;15.23;;;6.72;;
38053;SDS011;23859;50.672;7.164;2023-10-13T06:14:38;12.52;;;6.70;;
38053;SDS011;23859;50.672;7.164;2023-10-13T06:17:23;20.45;;;7.28;;
38053;SDS011;23859;50.672;7.164;2023-10-13T06:20:08;13.55;;;6.28;;
38053;SDS011;23859;50.672;7.164;2023-10-13T06:22:53;16.38;;;6.30;;
38053;SDS011;23859;50.672;7.164;2023-10-13T06:25:38;22.63;;;6.57;;
38053;SDS011;23859;50.672;7.164;2023-10-13T06:28:23;11.98;;;5.72;;
38053;SDS011;23859;50.672;7.164;2023-10-13T06:31:08;15.25;;;6.13;;
38053;SDS011;23859;50.672;7.164;2023-10-13T06:33:56;19.50;;;7.18;;
38053;SDS011;23859;50.672;7.164;2023-10-13T06:36:22;19.38;;;6.57;;
38053;SDS011;23859;50.672;7.164;2023-10-13T06:38:48;16.98;;;6.03;;
38053;SDS011;23859;50.672;7.164;2023-10-13T06:41:20;14.93;;;5.07;;
38053;SDS011;23859;50.672;7.164;2023-10-13T06:43:55;15.60;;;5.40;;
38053;SDS011;23859;50.672;7.164;2023-10-13T06:46:25;13.43;;;5.13;;
38053;SDS011;23859;50.672;7.164;2023-10-13T06:48:53;15.90;;;5.70;;
38053;SDS011;23859;50.672;7.164;2023-10-13T06:51:20;17.02;;;5.30;;
38053;SDS011;23859;50.672;7.164;2023-10-13T06:53:55;14.23;;;5.85;;
38053;SDS011;23859;50.672;7.164;2023-10-13T06:56:22;11.07;;;5.15;;
38053;SDS011;23859;50.672;7.164;2023-10-13T06:58:54;13.80;;;6.30;;
38053;SDS011;23859;50.672;7.164;2023-10-13T07:01:31;14.40;;;6.15;;
38053;SDS011;23859;50.672;7.164;2023-10-13T07:04:04;15.13;;;5.25;;
38053;SDS011;23859;50.672;7.164;2023-10-13T07:06:40;16.15;;;5.93;;
38053;SDS011;23859;50.672;7.164;2023-10-13T07:09:12;15.10;;;5.97;;
38053;SDS011;23859;50.672;7.164;2023-10-13T07:11:59;15.65;;;4.72;;
38053;SDS011;23859;50.672;7.164;2023-10-13T07:14:28;11.73;;;5.40;;
38053;SDS011;23859;50.672;7.164;2023-10-13T07:17:01;20.15;;;5.70;;
38053;SDS011;23859;50.672;7.164;2023-10-13T07:19:30;18.45;;;6.57;;
38053;SDS011;23859;50.672;7.164;2023-10-13T07:21:58;17.27;;;6.55;;
38053;SDS011;23859;50.672;7.164;2023-10-13T07:24:44;18.70;;;5.50;;
38053;SDS011;23859;50.672;7.164;2023-10-13T07:27:13;13.10;;;5.97;;
38053;SDS011;23859;50.672;7.164;2023-10-13T07:29:48;21.33;;;6.18;;
38053;SDS011;23859;50.672;7.164;2023-10-13T07:32:30;20.58;;;5.88;;
38053;SDS011;23859;50.672;7.164;2023-10-13T07:34:59;11.63;;;5.43;;
38053;SDS011;23859;50.672;7.164;2023-10-13T07:37:36;12.88;;;4.93;;
38053;SDS011;23859;50.672;7.164;2023-10-13T07:40:06;16.02;;;5.97;;
38053;SDS011;23859;50.672;7.164;2023-10-13T07:42:47;18.83;;;6.78;;
38053;SDS011;23859;50.672;7.164;2023-10-13T07:45:16;11.20;;;5.07;;
38053;SDS011;23859;50.672;7.164;2023-10-13T07:47:50;17.95;;;5.30;;
38053;SDS011;23859;50.672;7.164;2023-10-13T07:50:16;10.60;;;5.00;;
38053;SDS011;23859;50.672;7.164;2023-10-13T07:52:50;17.67;;;5.70;;
38053;SDS011;23859;50.672;7.164;2023-10-13T07:55:35;11.45;;;4.80;;
38053;SDS011;23859;50.672;7.164;2023-10-13T07:58:04;16.17;;;5.07;;
38053;SDS011;23859;50.672;7.164;2023-10-13T08:00:32;20.65;;;5.18;;
38053;SDS011;23859;50.672;7.164;2023-10-13T08:03:11;12.73;;;5.53;;
38053;SDS011;23859;50.672;7.164;2023-10-13T08:05:43;18.88;;;5.25;;
38053;SDS011;23859;50.672;7.164;2023-10-13T08:08:25;12.73;;;5.65;;
38053;SDS011;23859;50.672;7.164;2023-10-13T08:10:57;12.48;;;5.32;;
38053;SDS011;23859;50.672;7.164;2023-10-13T08:13:33;14.05;;;4.85;;
38053;SDS011;23859;50.672;7.164;2023-10-13T08:16:02;12.52;;;4.55;;
38053;SDS011;23859;50.672;7.164;2023-10-13T08:18:34;17.80;;;5.20;;
38053;SDS011;23859;50.672;7.164;2023-10-13T08:21:01;12.88;;;4.45;;
38053;SDS011;23859;50.672;7.164;2023-10-13T08:23:31;16.77;;;4.63;;
38053;SDS011;23859;50.672;7.164;2023-10-13T08:26:17;17.75;;;4.57;;
38053;SDS011;23859;50.672;7.164;2023-10-13T08:29:02;11.38;;;5.53;;
38053;SDS011;23859;50.672;7.164;2023-10-13T08:31:50;13.85;;;4.68;;
38053;SDS011;23859;50.672;7.164;2023-10-13T08:34:29;12.18;;;5.28;;
38053;SDS011;23859;50.672;7.164;2023-10-13T08:37:04;13.07;;;4.10;;
38053;SDS011;23859;50.672;7.164;2023-10-13T08:39:56;11.38;;;5.32;;
38053;SDS011;23859;50.672;7.164;2023-10-13T08:42:33;9.50;;;4.95;;
38053;SDS011;23859;50.672;7.164;2023-10-13T08:45:11;14.85;;;5.03;;
38053;SDS011;23859;50.672;7.164;2023-10-13T08:48:06;12.68;;;4.53;;
38053;SDS011;23859;50.672;7.164;2023-10-13T08:50:44;13.40;;;5.30;;
38053;SDS011;23859;50.672;7.164;2023-10-13T08:58:41;11.43;;;5.45;;
38053;SDS011;23859;50.672;7.164;2023-10-13T09:01:28;18.92;;;5.53;;
38053;SDS011;23859;50.672;7.164;2023-10-13T09:06:59;13.32;;;5.30;;
38053;SDS011;23859;50.672;7.164;2023-10-13T09:12:11;23.45;;;9.77;;
38053;SDS011;23859;50.672;7.164;2023-10-13T09:14:39;16.48;;;8.57;;
38053;SDS011;23859;50.672;7.164;2023-10-13T09:17:10;15.10;;;7.22;;
38053;SDS011;23859;50.672;7.164;2023-10-13T09:19:51;16.45;;;6.72;;
38053;SDS011;23859;50.672;7.164;2023-10-13T09:22:27;17.83;;;5.72;;
38053;SDS011;23859;50.672;7.164;2023-10-13T09:25:03;12.65;;;6.88;;
38053;SDS011;23859;50.672;7.164;2023-10-13T09:27:38;12.57;;;5.82;;
38053;SDS011;23859;50.672;7.164;2023-10-13T09:30:05;9.50;;;5.65;;
38053;SDS011;23859;50.672;7.164;2023-10-13T09:32:48;13.77;;;5.45;;
38053;SDS011;23859;50.672;7.164;2023-10-13T09:35:29;13.48;;;5.53;;
38053;SDS011;23859;50.672;7.164;2023-10-13T09:37:59;8.77;;;5.15;;
38053;SDS011;23859;50.672;7.164;2023-10-13T09:40:29;11.20;;;6.07;;
38053;SDS011;23859;50.672;7.164;2023-10-13T09:42:58;22.83;;;6.18;;
38053;SDS011;23859;50.672;7.164;2023-10-13T09:45:30;10.07;;;5.45;;
38053;SDS011;23859;50.672;7.164;2023-10-13T09:48:24;10.80;;;5.97;;
38053;SDS011;23859;50.672;7.164;2023-10-13T09:50:57;15.65;;;5.93;;
38053;SDS011;23859;50.672;7.164;2023-10-13T09:53:26;11.90;;;5.32;;
38053;SDS011;23859;50.672;7.164;2023-10-13T09:55:56;9.13;;;5.00;;
38053;SDS011;23859;50.672;7.164;2023-10-13T09:58:36;11.57;;;5.60;;
38053;SDS011;23859;50.672;7.164;2023-10-13T10:01:12;11.77;;;5.10;;
38053;SDS011;23859;50.672;7.164;2023-10-13T10:04:05;17.52;;;5.05;;
38053;SDS011;23859;50.672;7.164;2023-10-13T10:06:34;13.15;;;5.90;;
38053;SDS011;23859;50.672;7.164;2023-10-13T10:09:06;12.65;;;5.82;;
38053;SDS011;23859;50.672;7.164;2023-10-13T10:14:33;19.17;;;5.15;;
38053;SDS011;23859;50.672;7.164;2023-10-13T10:17:06;11.73;;;5.72;;
38053;SDS011;23859;50.672;7.164;2023-10-13T10:19:33;15.27;;;5.90;;
38053;SDS011;23859;50.672;7.164;2023-10-13T10:22:12;8.65;;;5.47;;
38053;SDS011;23859;50.672;7.164;2023-10-13T10:24:55;8.57;;;4.65;;
38053;SDS011;23859;50.672;7.164;2023-10-13T10:27:29;17.02;;;5.45;;
38053;SDS011;23859;50.672;7.164;2023-10-13T10:29:57;11.60;;;5.28;;
38053;SDS011;23859;50.672;7.164;2023-10-13T10:32:41;13.38;;;5.47;;
38053;SDS011;23859;50.672;7.164;2023-10-13T10:35:13;11.00;;;5.57;;
38053;SDS011;23859;50.672;7.164;2023-10-13T10:37:41;15.18;;;5.70;;
38053;SDS011;23859;50.672;7.164;2023-10-13T10:40:16;13.85;;;6.45;;
38053;SDS011;23859;50.672;7.164;2023-10-13T10:43:01;11.27;;;5.05;;
38053;SDS011;23859;50.672;7.164;2023-10-13T10:45:33;12.88;;;6.03;;
38053;SDS011;23859;50.672;7.164;2023-10-13T10:48:02;10.25;;;5.55;;
38053;SDS011;23859;50.672;7.164;2023-10-13T10:50:42;9.25;;;4.95;;
38053;SDS011;23859;50.672;7.164;2023-10-13T10:53:18;13.70;;;5.72;;
38053;SDS011;23859;50.672;7.164;2023-10-13T10:55:47;13.35;;;5.18;;
38053;SDS011;23859;50.672;7.164;2023-10-13T10:58:14;13.18;;;6.57;;
38053;SDS011;23859;50.672;7.164;2023-10-13T11:01:05;14.48;;;4.75;;
38053;SDS011;23859;50.672;7.164;2023-10-13T11:03:35;9.05;;;5.30;;
38053;SDS011;23859;50.672;7.164;2023-10-13T11:06:10;12.52;;;5.13;;
38053;SDS011;23859;50.672;7.164;2023-10-13T11:08:42;9.75;;;5.72;;
38053;SDS011;23859;50.672;7.164;2023-10-13T11:11:15;14.80;;;4.75;;
38053;SDS011;23859;50.672;7.164;2023-10-13T11:13:43;11.07;;;4.95;;
38053;SDS011;23859;50.672;7.164;2023-10-13T11:16:21;15.20;;;4.78;;
38053;SDS011;23859;50.672;7.164;2023-10-13T11:19:02;8.55;;;4.38;;
38053;SDS011;23859;50.672;7.164;2023-10-13T11:21:30;14.63;;;5.95;;
38053;SDS011;23859;50.672;7.164;2023-10-13T11:23:56;9.50;;;4.32;;
38053;SDS011;23859;50.672;7.164;2023-10-13T11:26:37;10.95;;;5.18;;
38053;SDS011;23859;50.672;7.164;2023-10-13T11:29:17;13.88;;;5.22;;
38053;SDS011;23859;50.672;7.164;2023-10-13T11:31:47;13.82;;;5.53;;
38053;SDS011;23859;50.672;7.164;2023-10-13T11:34:23;13.20;;;5.18;;
38053;SDS011;23859;50.672;7.164;2023-10-13T11:36:50;12.07;;;5.10;;
38053;SDS011;23859;50.672;7.164;2023-10-13T11:39:17;9.40;;;4.75;;
38053;SDS011;23859;50.672;7.164;2023-10-13T11:41:55;9.10;;;4.80;;
38053;SDS011;23859;50.672;7.164;2023-10-13T11:44:21;9.82;;;4.85;;
38053;SDS011;23859;50.672;7.164;2023-10-13T11:46:48;11.80;;;5.22;;
38053;SDS011;23859;50.672;7.164;2023-10-13T11:49:20;8.02;;;5.00;;
38053;SDS011;23859;50.672;7.164;2023-10-13T11:51:53;11.20;;;4.68;;
38053;SDS011;23859;50.672;7.164;2023-10-13T11:54:38;8.73;;;5.05;;
38053;SDS011;23859;50.672;7.164;2023-10-13T11:57:06;10.15;;;4.72;;
38053;SDS011;23859;50.672;7.164;2023-10-13T11:59:33;15.32;;;4.88;;
38053;SDS011;23859;50.672;7.164;2023-10-13T12:02:01;9.68;;;4.32;;
38053;SDS011;23859;50.672;7.164;2023-10-13T12:04:46;12.85;;;4.72;;
38053;SDS011;23859;50.672;7.164;2023-10-13T12:07:22;11.50;;;5.15;;
38053;SDS011;23859;50.672;7.164;2023-10-13T12:09:52;11.52;;;4.88;;
38053;SDS011;23859;50.672;7.164;2023-10-13T12:12:21;12.43;;;4.63;;
38053;SDS011;23859;50.672;7.164;2023-10-13T12:14:48;8.45;;;4.72;;
38053;SDS011;23859;50.672;7.164;2023-10-13T12:17:17;9.45;;;4.68;;
38053;SDS011;23859;50.672;7.164;2023-10-13T12:19:51;15.25;;;5.15;;
38053;SDS011;23859;50.672;7.164;2023-10-13T12:22:17;8.68;;;4.78;;
38053;SDS011;23859;50.672;7.164;2023-10-13T12:24:52;10.50;;;4.70;;
38053;SDS011;23859;50.672;7.164;2023-10-13T12:27:21;9.40;;;4.10;;
38053;SDS011;23859;50.672;7.164;2023-10-13T12:30:00;11.80;;;4.93;;
38053;SDS011;23859;50.672;7.164;2023-10-13T12:32:32;14.23;;;4.82;;
38053;SDS011;23859;50.672;7.164;2023-10-13T12:34:59;14.75;;;4.60;;
38053;SDS011;23859;50.672;7.164;2023-10-13T12:37:31;13.85;;;5.40;;
38053;SDS011;23859;50.672;7.164;2023-10-13T12:42:49;10.50;;;4.68;;
38053;SDS011;23859;50.672;7.164;2023-10-13T12:48:28;10.43;;;4.68;;
38053;SDS011;23859;50.672;7.164;2023-10-13T12:51:14;10.52;;;4.53;;
38053;SDS011;23859;50.672;7.164;2023-10-13T12:54:05;15.70;;;5.47;;
38053;SDS011;23859;50.672;7.164;2023-10-13T12:56:45;14.02;;;4.50;;
38053;SDS011;23859;50.672;7.164;2023-10-13T12:59:11;8.02;;;4.00;;
38053;SDS011;23859;50.672;7.164;2023-10-13T13:01:40;8.77;;;4.70;;
38053;SDS011;23859;50.672;7.164;2023-10-13T13:04:10;11.93;;;4.40;;
38053;SDS011;23859;50.672;7.164;2023-10-13T13:06:43;11.68;;;4.95;;
38053;SDS011;23859;50.672;7.164;2023-10-13T13:09:09;13.30;;;5.28;;
38053;SDS011;23859;50.672;7.164;2023-10-13T13:11:35;13.80;;;4.43;;
38053;SDS011;23859;50.672;7.164;2023-10-13T13:14:08;15.43;;;4.00;;
38053;SDS011;23859;50.672;7.164;2023-10-13T13:16:34;9.63;;;4.28;;
38053;SDS011;23859;50.672;7.164;2023-10-13T13:19:03;9.82;;;4.80;;
38053;SDS011;23859;50.672;7.164;2023-10-13T13:21:39;8.13;;;4.15;;
38053;SDS011;23859;50.672;7.164;2023-10-13T13:24:05;14.63;;;4.43;;
38053;SDS011;23859;50.672;7.164;2023-10-13T13:26:39;13.70;;;4.80;;
38053;SDS011;23859;50.672;7.164;2023-10-13T13:29:07;20.60;;;5.65;;
38053;SDS011;23859;50.672;7.164;2023-10-13T13:31:36;13.02;;;5.75;;
38053;SDS011;23859;50.672;7.164;2023-10-13T13:34:09;19.63;;;5.13;;
38053;SDS011;23859;50.672;7.164;2023-10-13T13:36:37;8.30;;;4.13;;
38053;SDS011;23859;50.672;7.164;2023-10-13T13:39:08;10.20;;;4.72;;
38053;SDS011;23859;50.672;7.164;2023-10-13T13:41:42;17.85;;;4.43;;
38053;SDS011;23859;50.672;7.164;2023-10-13T13:44:09;16.15;;;4.40;;
38053;SDS011;23859;50.672;7.164;2023-10-13T13:46:40;13.93;;;4.82;;
38053;SDS011;23859;50.672;7.164;2023-10-13T13:49:07;10.30;;;4.55;;
38053;SDS011;23859;50.672;7.164;2023-10-13T13:51:42;11.27;;;5.00;;
38053;SDS011;23859;50.672;7.164;2023-10-13T13:54:16;12.45;;;4.45;;
38053;SDS011;23859;50.672;7.164;2023-10-13T13:56:43;12.23;;;4.60;;
38053;SDS011;23859;50.672;7.164;2023-10-13T13:59:09;11.05;;;4.43;;
38053;SDS011;23859;50.672;7.164;2023-10-13T14:01:40;10.27;;;4.90;;
38053;SDS011;23859;50.672;7.164;2023-10-13T14:04:09;14.23;;;4.57;;
38053;SDS011;23859;50.672;7.164;2023-10-13T14:06:36;9.57;;;4.65;;
38053;SDS011;23859;50.672;7.164;2023-10-13T14:09:02;15.68;;;4.78;;
38053;SDS011;23859;50.672;7.164;2023-10-13T14:11:39;9.80;;;4.40;;
38053;SDS011;23859;50.672;7.164;2023-10-13T14:14:06;10.35;;;4.88;;
38053;SDS011;23859;50.672;7.164;2023-10-13T14:16:41;17.30;;;4.78;;
38053;SDS011;23859;50.672;7.164;2023-10-13T14:19:12;12.05;;;4.22;;
38053;SDS011;23859;50.672;7.164;2023-10-13T14:21:54;13.57;;;4.60;;
38053;SDS011;23859;50.672;7.164;2023-10-13T14:24:21;11.48;;;4.15;;
38053;SDS011;23859;50.672;7.164;2023-10-13T14:26:55;17.83;;;4.53;;
38053;SDS011;23859;50.672;7.164;2023-10-13T14:29:43;11.55;;;4.50;;
38053;SDS011;23859;50.672;7.164;2023-10-13T14:32:09;14.10;;;4.53;;
38053;SDS011;23859;50.672;7.164;2023-10-13T14:34:43;14.10;;;4.50;;
38053;SDS011;23859;50.672;7.164;2023-10-13T14:37:11;7.00;;;4.25;;
38053;SDS011;23859;50.672;7.164;2023-10-13T14:39:46;9.90;;;4.22;;
38053;SDS011;23859;50.672;7.164;2023-10-13T14:42:12;13.43;;;4.38;;
38053;SDS011;23859;50.672;7.164;2023-10-13T14:44:39;11.10;;;4.68;;
38053;SDS011;23859;50.672;7.164;2023-10-13T14:47:05;14.88;;;4.40;;
38053;SDS011;23859;50.672;7.164;2023-10-13T14:49:33;8.77;;;4.68;;
38053;SDS011;23859;50.672;7.164;2023-10-13T14:52:00;10.82;;;4.13;;
38053;SDS011;23859;50.672;7.164;2023-10-13T14:54:27;11.68;;;4.13;;
38053;SDS011;23859;50.672;7.164;2023-10-13T14:56:59;12.00;;;4.72;;
38053;SDS011;23859;50.672;7.164;2023-10-13T14:59:27;8.50;;;4.93;;
38053;SDS011;23859;50.672;7.164;2023-10-13T15:01:57;16.60;;;4.57;;
38053;SDS011;23859;50.672;7.164;2023-10-13T15:04:26;9.30;;;4.25;;
38053;SDS011;23859;50.672;7.164;2023-10-13T15:06:53;6.82;;;4.32;;
38053;SDS011;23859;50.672;7.164;2023-10-13T15:09:20;8.98;;;4.47;;
38053;SDS011;23859;50.672;7.164;2023-10-13T15:11:48;11.07;;;4.55;;
38053;SDS011;23859;50.672;7.164;2023-10-13T15:14:18;9.35;;;4.88;;
38053;SDS011;23859;50.672;7.164;2023-10-13T15:16:50;13.80;;;5.10;;
38053;SDS011;23859;50.672;7.164;2023-10-13T15:19:20;8.48;;;5.00;;
38053;SDS011;23859;50.672;7.164;2023-10-13T15:21:46;10.52;;;4.47;;
38053;SDS011;23859;50.672;7.164;2023-10-13T15:24:15;12.52;;;4.78;;
38053;SDS011;23859;50.672;7.164;2023-10-13T15:26:45;13.75;;;5.15;;
38053;SDS011;23859;50.672;7.164;2023-10-13T15:29:17;11.88;;;4.40;;
38053;SDS011;23859;50.672;7.164;2023-10-13T15:31:50;8.18;;;4.60;;